Time;durP1;ratioP1;P1;durP2;ratioP2;P2;SDS_P1;SDS_P2;PMS_P1;PMS_P2;Temp;Humidity;BMP_temperature;BMP_pressure;BME280_temperature;BME280_humidity;BME280_pressure;Samples;Min_cycle;Max_cycle;Signal;HPM_P1;HPM_P2
2023/06/23 00:01:00;;;;;;;91.63;43.38;;;;;;;16.62;100.00;101961.13;5202601;28;20040;-71
2023/06/23 00:03:31;;;;;;;102.15;46.35;;;;;;;16.60;100.00;101965.03;5202730;28;20037;-71
2023/06/23 00:06:03;;;;;;;92.13;44.80;;;;;;;16.51;100.00;101964.22;5202052;28;20359;-71
2023/06/23 00:08:35;;;;;;;92.47;45.63;;;;;;;16.46;100.00;101963.91;5202299;28;20036;-71
2023/06/23 00:11:06;;;;;;;97.07;46.13;;;;;;;16.44;100.00;101976.78;5202488;28;20032;-71
2023/06/23 00:13:37;;;;;;;104.68;46.45;;;;;;;16.40;100.00;101976.31;5202592;28;20028;-71
2023/06/23 00:16:08;;;;;;;106.20;48.03;;;;;;;16.33;100.00;101980.75;5200684;28;20033;-71
2023/06/23 00:18:39;;;;;;;113.32;46.95;;;;;;;16.34;100.00;101984.28;5202310;28;20032;-71
2023/06/23 00:21:10;;;;;;;106.25;47.90;;;;;;;16.27;100.00;101987.72;5202145;28;20021;-71
2023/06/23 00:23:41;;;;;;;106.97;46.63;;;;;;;16.26;100.00;101988.72;5202205;28;20112;-71
2023/06/23 00:26:12;;;;;;;102.15;44.55;;;;;;;16.27;100.00;101985.00;5201925;28;20175;-71
2023/06/23 00:28:42;;;;;;;102.88;46.38;;;;;;;16.25;100.00;101995.16;5202199;28;20021;-71
2023/06/23 00:31:12;;;;;;;111.05;49.38;;;;;;;16.22;100.00;102002.81;5202391;28;20032;-71
2023/06/23 00:33:43;;;;;;;111.75;48.67;;;;;;;16.17;100.00;101997.91;5215523;28;20022;-71
2023/06/23 00:36:13;;;;;;;128.27;51.55;;;;;;;16.14;100.00;102011.78;5203441;28;20160;-71
2023/06/23 00:38:44;;;;;;;114.70;48.40;;;;;;;16.07;100.00;102009.97;5206246;28;20025;-71
2023/06/23 00:41:15;;;;;;;99.90;46.05;;;;;;;16.03;100.00;102015.72;5206866;28;20086;-71
2023/06/23 00:43:50;;;;;;;123.70;51.30;;;;;;;16.03;100.00;102017.59;5206396;28;20490;-71
2023/06/23 00:46:21;;;;;;;100.63;44.65;;;;;;;15.99;100.00;102016.22;5206167;28;20486;-71
2023/06/23 00:48:52;;;;;;;114.05;49.75;;;;;;;15.93;100.00;102014.22;5206364;28;20025;-71
2023/06/23 00:51:23;;;;;;;105.80;47.53;;;;;;;15.92;100.00;102024.22;5206360;28;20021;-72
2023/06/23 00:53:54;;;;;;;120.90;51.92;;;;;;;15.92;100.00;102023.38;5206331;28;20030;-72
2023/06/23 00:56:25;;;;;;;134.52;51.42;;;;;;;15.88;100.00;102027.44;5205235;28;20032;-72
2023/06/23 00:58:55;;;;;;;131.07;51.17;;;;;;;15.86;100.00;102030.28;5206430;28;20029;-72
2023/06/23 01:01:25;;;;;;;125.55;54.10;;;;;;;15.84;100.00;102026.91;5206630;28;20026;-72
2023/06/23 01:03:58;;;;;;;123.00;52.30;;;;;;;15.79;100.00;102040.97;5206383;28;20028;-71
2023/06/23 01:07:05;;;;;;;137.52;54.67;;;;;;;15.82;100.00;102034.38;5205630;28;20378;-72
2023/06/23 01:09:46;;;;;;;123.50;51.95;;;;;;;15.83;100.00;102038.78;5206063;28;20483;-72
2023/06/23 01:12:33;;;;;;;124.70;52.60;;;;;;;15.79;100.00;102037.41;5205924;28;20435;-72
2023/06/23 01:15:25;;;;;;;129.95;52.42;;;;;;;15.75;100.00;102044.19;5205676;28;20072;-72
2023/06/23 01:18:18;;;;;;;130.30;52.30;;;;;;;15.71;100.00;102051.81;5205537;28;20040;-72
2023/06/23 01:20:50;;;;;;;127.78;54.58;;;;;;;15.67;100.00;102045.06;5205577;28;20508;-72
2023/06/23 01:23:45;;;;;;;132.43;53.72;;;;;;;15.64;100.00;102048.09;5205354;28;20059;-72
2023/06/23 01:26:51;;;;;;;117.28;48.88;;;;;;;15.59;100.00;102055.00;5205343;28;20048;-72
2023/06/23 01:29:26;;;;;;;117.38;50.60;;;;;;;15.55;100.00;102059.88;5205735;28;20021;-72
2023/06/23 01:32:18;;;;;;;128.25;54.10;;;;;;;15.51;100.00;102066.63;5205413;28;20029;-71
2023/06/23 01:34:52;;;;;;;127.15;51.60;;;;;;;15.47;100.00;102070.72;5205276;28;20041;-71
2023/06/23 01:37:29;;;;;;;126.60;52.55;;;;;;;15.48;100.00;102064.28;5205183;28;20022;-71
2023/06/23 01:40:08;;;;;;;132.60;54.55;;;;;;;15.47;100.00;102068.03;5205329;28;20115;-72
2023/06/23 01:42:51;;;;;;;128.27;50.92;;;;;;;15.46;100.00;102074.41;5205808;28;20036;-71
2023/06/23 01:45:27;;;;;;;127.20;51.45;;;;;;;15.41;100.00;102077.66;5205343;28;20031;-72
2023/06/23 01:48:01;;;;;;;;;;;;;;;15.37;100.00;102084.41;5204864;28;20029;-71
2023/06/23 01:50:33;;;;;;;134.15;53.35;;;;;;;15.31;100.00;102087.75;5205056;28;19955;-71
2023/06/23 01:53:05;;;;;;;132.85;53.67;;;;;;;15.32;100.00;102094.88;5205378;28;20026;-71
2023/06/23 01:55:38;;;;;;;147.07;54.63;;;;;;;15.33;100.00;102099.28;5205053;28;20111;-72
2023/06/23 01:58:10;;;;;;;151.98;58.72;;;;;;;15.32;100.00;102091.34;5204856;28;20482;-72
2023/06/23 02:00:42;;;;;;;135.30;53.50;;;;;;;15.29;100.00;102093.34;5205191;28;20037;-71
2023/06/23 02:03:14;;;;;;;144.52;55.75;;;;;;;15.26;100.00;102104.50;5205040;28;20360;-72
2023/06/23 02:05:48;;;;;;;138.63;53.05;;;;;;;15.22;100.00;102108.53;5203458;28;20029;-72
2023/06/23 02:08:19;;;;;;;130.23;52.45;;;;;;;15.17;100.00;102110.91;5205190;28;20029;-72
2023/06/23 02:10:54;;;;;;;151.43;56.00;;;;;;;15.13;100.00;102109.53;5203544;28;20025;-72
2023/06/23 02:13:29;;;;;;;137.93;56.17;;;;;;;15.06;100.00;102115.75;5204766;28;20018;-72
2023/06/23 02:16:01;;;;;;;151.13;56.70;;;;;;;15.15;100.00;102121.03;5204250;28;20291;-72
2023/06/23 02:18:36;;;;;;;141.77;52.33;;;;;;;15.12;100.00;102128.63;5204577;28;20697;-72
2023/06/23 02:21:09;;;;;;;144.82;57.58;;;;;;;15.10;100.00;102120.66;5204852;28;20108;-72
2023/06/23 02:23:40;;;;;;;162.38;58.03;;;;;;;15.13;100.00;102123.06;5204443;28;20021;-72
2023/06/23 02:26:11;;;;;;;168.95;60.92;;;;;;;15.11;100.00;102129.63;5204009;28;20029;-72
2023/06/23 02:28:49;;;;;;;145.73;57.28;;;;;;;15.06;100.00;102132.84;5204691;28;20515;-72
2023/06/23 02:31:23;;;;;;;150.38;56.95;;;;;;;15.05;100.00;102141.09;5204770;28;20025;-73
2023/06/23 02:33:54;;;;;;;140.13;53.55;;;;;;;14.99;100.00;102138.03;5204611;28;20022;-72
2023/06/23 02:36:30;;;;;;;139.07;51.67;;;;;;;15.01;100.00;102138.75;5203551;28;20034;-72
2023/06/23 02:39:04;;;;;;;154.57;56.97;;;;;;;14.98;100.00;102151.72;5204652;28;20499;-72
2023/06/23 02:41:36;;;;;;;153.20;55.17;;;;;;;14.97;100.00;102153.59;5204501;28;20434;-72
2023/06/23 02:44:12;;;;;;;148.52;55.63;;;;;;;14.96;100.00;102157.31;5204739;28;20268;-71
2023/06/23 02:46:46;;;;;;;172.20;58.00;;;;;;;14.94;100.00;102150.34;5203628;28;20030;-71
2023/06/23 02:49:21;;;;;;;145.90;54.58;;;;;;;14.85;100.00;102149.47;5204455;28;20421;-71
2023/06/23 02:51:57;;;;;;;161.75;54.92;;;;;;;14.83;100.00;102151.50;5204149;28;20018;-71
2023/06/23 02:54:36;;;;;;;147.55;54.15;;;;;;;14.75;100.00;102146.03;5204398;28;20109;-71
2023/06/23 02:57:12;;;;;;;180.30;60.67;;;;;;;14.71;100.00;102145.53;5203582;28;20112;-71
2023/06/23 02:59:45;;;;;;;160.15;56.30;;;;;;;14.67;100.00;102146.03;5203169;28;20092;-70
2023/06/23 03:02:18;;;;;;;177.52;60.03;;;;;;;14.68;100.00;102148.56;5204189;28;20024;-72
2023/06/23 03:04:49;;;;;;;170.40;61.60;;;;;;;14.63;100.00;102153.59;5204093;28;20025;-71
2023/06/23 03:07:19;;;;;;;157.00;56.58;;;;;;;14.62;100.00;102153.78;5203456;28;20455;-71
2023/06/23 03:09:50;;;;;;;162.20;55.10;;;;;;;14.58;100.00;102155.94;5203712;28;20120;-71
2023/06/23 03:12:21;;;;;;;183.70;60.55;;;;;;;14.64;100.00;102151.75;5203711;28;20112;-71
2023/06/23 03:14:53;;;;;;;170.60;58.92;;;;;;;14.66;100.00;102152.41;5204082;28;20140;-71
2023/06/23 03:17:27;;;;;;;195.10;60.33;;;;;;;14.67;100.00;102162.22;5203097;28;20018;-72
2023/06/23 03:20:24;;;;;;;164.90;55.03;;;;;;;14.65;100.00;102162.38;5203817;28;20056;-71
2023/06/23 03:23:03;;;;;;;183.35;60.88;;;;;;;14.64;100.00;102160.69;5203481;28;20144;-71
2023/06/23 03:25:36;;;;;;;174.77;56.10;;;;;;;14.65;100.00;102167.78;5203521;28;20036;-72
2023/06/23 03:28:10;;;;;;;181.20;60.13;;;;;;;14.66;100.00;102165.91;5203526;28;20037;-72
2023/06/23 03:31:02;;;;;;;183.50;61.70;;;;;;;14.69;100.00;102166.44;5203284;28;20040;-72
2023/06/23 03:33:36;;;;;;;208.90;61.53;;;;;;;14.71;100.00;102169.84;5203320;28;20033;-71
2023/06/23 03:36:24;;;;;;;185.80;61.70;;;;;;;14.68;100.00;102164.75;5202990;28;20578;-72
2023/06/23 03:39:02;;;;;;;184.32;55.15;;;;;;;14.63;100.00;102171.66;5203307;28;20268;-72
2023/06/23 03:41:33;;;;;;;198.00;57.08;;;;;;;14.61;100.00;102169.13;5203341;28;20025;-72
2023/06/23 03:44:22;;;;;;;172.23;57.00;;;;;;;14.57;100.00;102173.16;5203466;28;20014;-72
2023/06/23 03:46:57;;;;;;;172.10;57.80;;;;;;;14.55;100.00;102175.16;5202785;28;20040;-72
2023/06/23 03:49:35;;;;;;;184.15;60.90;;;;;;;14.61;100.00;102174.53;5202885;28;20136;-72
2023/06/23 03:52:09;;;;;;;168.63;58.08;;;;;;;14.63;100.00;102166.25;5203364;28;20079;-72
2023/06/23 03:54:42;;;;;;;173.00;57.63;;;;;;;14.67;100.00;102173.03;5203321;28;20077;-72
2023/06/23 03:57:17;;;;;;;190.23;59.10;;;;;;;14.70;100.00;102172.69;5202699;28;20136;-72
2023/06/23 03:59:49;;;;;;;158.95;56.20;;;;;;;14.71;100.00;102177.97;5201839;28;20491;-72
2023/06/23 04:02:23;;;;;;;178.10;58.45;;;;;;;14.73;100.00;102173.22;5203491;28;20029;-72
2023/06/23 04:04:56;;;;;;;175.20;58.10;;;;;;;14.76;100.00;102167.50;5203137;28;20082;-72
2023/06/23 04:07:28;;;;;;;157.70;55.65;;;;;;;14.78;100.00;102167.34;5202348;28;20032;-72
2023/06/23 04:10:02;;;;;;;173.05;58.40;;;;;;;14.81;100.00;102174.25;5202832;28;20039;-71
2023/06/23 04:12:33;;;;;;;182.38;58.92;;;;;;;14.82;100.00;102178.69;5202873;28;20021;-72
2023/06/23 04:15:07;;;;;;;192.80;60.88;;;;;;;14.83;100.00;102188.47;5203226;28;20030;-72
2023/06/23 04:17:41;;;;;;;170.75;58.35;;;;;;;14.85;100.00;102190.00;5202370;28;20391;-72
2023/06/23 04:20:14;;;;;;;169.73;57.40;;;;;;;14.82;100.00;102195.75;5202785;28;20160;-72
2023/06/23 04:22:47;;;;;;;177.73;57.30;;;;;;;14.87;100.00;102197.94;5202531;28;20087;-72
2023/06/23 04:25:19;;;;;;;177.77;56.53;;;;;;;14.90;100.00;102197.63;5202875;28;20100;-72
2023/06/23 04:27:53;;;;;;;180.68;56.45;;;;;;;14.91;100.00;102194.78;5202400;28;20067;-72
2023/06/23 04:30:26;;;;;;;159.77;54.92;;;;;;;14.98;100.00;102203.06;5202865;28;20022;-72
2023/06/23 04:32:58;;;;;;;152.73;55.53;;;;;;;14.99;100.00;102204.75;5202590;28;20021;-72
2023/06/23 04:35:29;;;;;;;161.13;58.47;;;;;;;15.01;100.00;102202.75;5202485;28;20061;-72
2023/06/23 04:38:03;;;;;;;178.00;60.38;;;;;;;15.09;100.00;102199.22;5202537;28;20033;-72
2023/06/23 04:40:49;;;;;;;161.20;56.90;;;;;;;15.15;100.00;102203.97;5203029;28;20126;-72
2023/06/23 04:43:36;;;;;;;172.73;58.97;;;;;;;15.18;100.00;102209.06;5202613;28;20340;-72
2023/06/23 04:46:14;;;;;;;166.60;57.72;;;;;;;15.23;100.00;102207.56;5196140;28;20033;-72
2023/06/23 04:48:51;;;;;;;166.10;59.10;;;;;;;15.25;100.00;102212.78;5201990;28;20106;-72
2023/06/23 04:51:27;;;;;;;168.57;60.20;;;;;;;15.28;100.00;102218.72;5202613;28;20029;-71
2023/06/23 04:54:07;;;;;;;176.00;60.47;;;;;;;15.35;100.00;102223.47;5202509;28;20025;-72
2023/06/23 04:56:40;;;;;;;177.20;61.30;;;;;;;15.41;100.00;102225.50;5202099;28;20040;-72
2023/06/23 04:59:15;;;;;;;166.63;61.58;;;;;;;15.46;100.00;102233.97;5202754;28;20449;-72
2023/06/23 05:01:46;;;;;;;180.13;61.85;;;;;;;15.50;100.00;102244.31;5202826;28;20055;-71
2023/06/23 05:04:17;;;;;;;169.60;60.10;;;;;;;15.59;100.00;102257.84;5202322;28;20109;-71
2023/06/23 05:06:50;;;;;;;173.00;62.15;;;;;;;15.65;100.00;102260.78;5201890;28;20029;-72
2023/06/23 05:09:22;;;;;;;184.13;64.25;;;;;;;15.68;100.00;102271.28;5196944;28;20494;-71
2023/06/23 05:11:55;;;;;;;181.93;64.60;;;;;;;15.77;100.00;102272.16;5202194;28;20059;-71
2023/06/23 05:14:27;;;;;;;169.63;64.63;;;;;;;15.84;100.00;102272.31;5202425;28;20501;-71
2023/06/23 05:16:59;;;;;;;158.70;62.90;;;;;;;15.96;100.00;102265.56;5201310;28;20025;-71
2023/06/23 05:19:31;;;;;;;183.23;62.30;;;;;;;16.00;100.00;102264.22;5202329;28;20041;-71
2023/06/23 05:22:08;;;;;;;157.60;62.40;;;;;;;16.06;100.00;102263.53;5202863;28;20033;-71
2023/06/23 05:24:43;;;;;;;180.52;63.05;;;;;;;16.11;100.00;102261.19;5206134;28;20033;-71
2023/06/23 05:27:14;;;;;;;166.90;65.10;;;;;;;16.19;100.00;102260.34;5205016;28;20107;-71
2023/06/23 05:29:48;;;;;;;157.35;62.92;;;;;;;16.26;100.00;102266.78;5206032;28;20022;-71
2023/06/23 05:32:21;;;;;;;160.07;63.13;;;;;;;16.31;100.00;102267.97;5205924;28;20107;-71
2023/06/23 05:34:57;;;;;;;148.52;60.90;;;;;;;16.40;100.00;102271.50;5205805;28;20493;-71
2023/06/23 05:37:30;;;;;;;162.90;61.45;;;;;;;16.52;100.00;102281.00;5205356;28;20025;-71
2023/06/23 05:40:03;;;;;;;150.23;59.47;;;;;;;16.62;100.00;102286.25;5205876;28;20403;-71
2023/06/23 05:42:34;;;;;;;163.57;63.13;;;;;;;16.71;100.00;102282.50;5205912;28;20049;-71
2023/06/23 05:45:05;;;;;;;152.05;60.88;;;;;;;16.80;100.00;102272.50;5205657;28;20067;-71
2023/06/23 05:47:42;;;;;;;155.93;63.05;;;;;;;16.90;100.00;102272.31;5200990;28;20029;-70
2023/06/23 05:50:20;;;;;;;132.88;57.45;;;;;;;16.90;100.00;102275.03;5198108;28;20020;-71
2023/06/23 05:53:11;;;;;;;147.18;61.90;;;;;;;17.03;100.00;102268.06;5203968;28;20094;-71
2023/06/23 05:55:48;;;;;;;132.63;58.08;;;;;;;17.15;100.00;102275.81;5203492;28;20044;-70
2023/06/23 05:58:24;;;;;;;128.52;56.90;;;;;;;17.24;100.00;102274.75;5203812;28;20537;-70
2023/06/23 06:00:56;;;;;;;;;;;;;;;17.39;100.00;102285.72;5204546;28;20104;-70
2023/06/23 06:03:36;;;;;;;118.50;51.78;;;;;;;17.68;100.00;102285.06;5204279;28;20358;-70
2023/06/23 06:06:08;;;;;;;100.22;50.67;;;;;;;18.32;100.00;102288.38;5203373;28;20040;-70
2023/06/23 06:08:40;;;;;;;94.75;45.90;;;;;;;19.04;100.00;102293.31;5203754;28;20083;-70
2023/06/23 06:11:16;;;;;;;78.35;41.78;;;;;;;19.52;100.00;102294.59;5203304;28;20461;-70
2023/06/23 06:13:51;;;;;;;62.97;37.53;;;;;;;19.96;100.00;102293.66;5203482;28;20119;-70
2023/06/23 06:16:23;;;;;;;55.42;33.63;;;;;;;20.61;100.00;102281.72;5201887;28;20028;-70
2023/06/23 06:18:55;;;;;;;51.38;31.50;;;;;;;21.05;100.00;102280.53;5203371;28;20025;-71
2023/06/23 06:21:28;;;;;;;47.78;30.17;;;;;;;21.39;100.00;102276.97;5203432;28;20029;-70
2023/06/23 06:24:00;;;;;;;51.70;30.60;;;;;;;21.80;100.00;102277.97;5203131;28;20025;-70
2023/06/23 06:26:31;;;;;;;48.58;28.77;;;;;;;22.00;100.00;102286.19;5203438;28;20025;-70
2023/06/23 06:29:05;;;;;;;43.90;25.85;;;;;;;22.45;100.00;102285.44;5203379;28;20029;-71
2023/06/23 06:31:37;;;;;;;46.55;28.98;;;;;;;22.75;100.00;102285.00;5203681;28;20096;-70
2023/06/23 06:34:09;;;;;;;37.65;24.52;;;;;;;22.90;100.00;102280.16;5201575;28;20574;-71
2023/06/23 06:36:41;;;;;;;41.90;27.33;;;;;;;22.72;100.00;102283.50;5203038;28;20029;-70
2023/06/23 06:39:12;;;;;;;46.80;28.10;;;;;;;22.88;100.00;102293.19;5203249;28;20036;-70
2023/06/23 06:41:44;;;;;;;40.58;27.30;;;;;;;23.11;100.00;102287.25;5203437;28;20033;-70
2023/06/23 06:44:16;;;;;;;35.72;24.48;;;;;;;23.44;100.00;102289.88;5202615;28;20391;-71
2023/06/23 06:46:47;;;;;;;45.45;27.13;;;;;;;23.63;100.00;102296.34;5202599;28;20037;-71
2023/06/23 06:49:19;;;;;;;39.70;25.42;;;;;;;23.85;100.00;102299.63;5202904;28;20025;-71
2023/06/23 06:51:52;;;;;;;45.97;28.20;;;;;;;23.77;100.00;102310.84;5203349;28;20474;-71
2023/06/23 06:54:22;;;;;;;40.22;27.27;;;;;;;23.72;100.00;102314.22;5202596;28;20029;-70
2023/06/23 06:56:55;;;;;;;37.92;25.67;;;;;;;24.10;100.00;102315.28;5202360;28;20156;-70
2023/06/23 06:59:25;;;;;;;38.10;26.45;;;;;;;24.23;100.00;102318.78;5201551;28;20485;-71
2023/06/23 07:01:57;;;;;;;40.28;27.10;;;;;;;24.22;100.00;102327.22;5202972;28;20040;-71
2023/06/23 07:04:28;;;;;;;38.78;24.08;;;;;;;24.68;100.00;102326.06;5202732;28;20028;-71
2023/06/23 07:06:59;;;;;;;37.22;24.23;;;;;;;24.73;100.00;102335.28;5202712;28;20101;-71
2023/06/23 07:09:29;;;;;;;36.15;23.92;;;;;;;24.88;100.00;102337.69;5202622;28;20029;-71
2023/06/23 07:12:00;;;;;;;32.90;22.83;;;;;;;25.10;100.00;102334.53;5202634;28;20573;-71
2023/06/23 07:14:30;;;;;;;33.70;24.20;;;;;;;24.94;100.00;102341.44;5201382;28;20495;-70
2023/06/23 07:17:01;;;;;;;37.28;25.75;;;;;;;25.19;100.00;102341.41;5201942;28;20497;-71
2023/06/23 07:19:31;;;;;;;37.42;24.83;;;;;;;25.07;100.00;102346.84;5202345;28;20021;-70
2023/06/23 07:22:02;;;;;;;30.40;21.35;;;;;;;25.26;100.00;102345.78;5202166;28;20490;-71
2023/06/23 07:24:32;;;;;;;30.02;20.67;;;;;;;25.59;100.00;102344.53;5202099;28;20025;-71
2023/06/23 07:27:03;;;;;;;31.30;21.63;;;;;;;25.45;100.00;102341.13;5202414;28;20095;-71
2023/06/23 07:29:34;;;;;;;29.75;21.33;;;;;;;25.80;100.00;102340.50;5202318;28;20487;-71
2023/06/23 07:32:05;;;;;;;31.10;23.20;;;;;;;25.65;100.00;102338.13;5201972;28;20025;-71
2023/06/23 07:34:36;;;;;;;31.70;20.88;;;;;;;25.82;100.00;102349.38;5202113;28;20108;-71
2023/06/23 07:37:08;;;;;;;33.28;21.20;;;;;;;26.24;100.00;102341.16;5201550;28;20112;-71
2023/06/23 07:39:39;;;;;;;29.23;21.25;;;;;;;25.96;100.00;102344.53;5201979;28;20105;-71
2023/06/23 07:42:09;;;;;;;31.40;21.77;;;;;;;25.70;100.00;102349.25;5202098;28;20025;-71
2023/06/23 07:44:40;;;;;;;33.00;23.35;;;;;;;25.80;100.00;102354.25;5200713;28;20029;-71
2023/06/23 07:47:12;;;;;;;32.97;21.50;;;;;;;25.65;100.00;102351.84;5201228;28;20017;-71
2023/06/23 07:49:43;;;;;;;33.47;22.00;;;;;;;25.78;100.00;102345.41;5201650;28;20113;-71
2023/06/23 07:52:13;;;;;;;32.20;21.63;;;;;;;25.93;100.00;102348.56;5201722;28;20414;-71
2023/06/23 07:54:44;;;;;;;31.95;21.55;;;;;;;26.17;100.00;102346.75;5201264;28;20040;-71
2023/06/23 07:57:14;;;;;;;33.63;21.25;;;;;;;26.28;100.00;102336.84;5200758;28;20034;-71
2023/06/23 07:59:45;;;;;;;31.30;22.65;;;;;;;26.08;100.00;102345.41;5201465;28;20165;-71
2023/06/23 08:02:15;;;;;;;35.63;23.00;;;;;;;25.83;100.00;102331.81;5201891;28;20105;-71
2023/06/23 08:04:45;;;;;;;31.20;21.90;;;;;;;25.89;100.00;102328.09;5201125;28;20025;-71
2023/06/23 08:07:16;;;;;;;33.10;20.63;;;;;;;26.26;100.00;102337.09;5201000;28;20489;-71
2023/06/23 08:09:46;;;;;;;29.67;20.33;;;;;;;26.25;100.00;102332.66;5201063;28;20013;-71
2023/06/23 08:12:17;;;;;;;28.45;18.67;;;;;;;27.15;100.00;102336.25;5201515;28;20060;-71
2023/06/23 08:14:47;;;;;;;31.27;19.17;;;;;;;27.37;100.00;102334.56;5201370;28;20398;-71
2023/06/23 08:17:17;;;;;;;28.17;18.98;;;;;;;27.48;100.00;102335.63;5200914;28;20414;-71
2023/06/23 08:19:48;;;;;;;26.27;18.88;;;;;;;27.35;100.00;102343.06;5201387;28;20418;-71
2023/06/23 08:22:18;;;;;;;29.33;17.92;;;;;;;27.09;100.00;102347.16;5200717;28;20492;-71
2023/06/23 08:24:49;;;;;;;23.63;16.85;;;;;;;27.19;100.00;102337.47;5199971;28;20550;-71
2023/06/23 08:27:19;;;;;;;28.10;18.08;;;;;;;27.27;100.00;102348.97;5200883;28;20072;-71
2023/06/23 08:29:50;;;;;;;23.52;16.63;;;;;;;27.39;100.00;102340.66;5200217;28;20021;-71
2023/06/23 08:32:21;;;;;;;26.55;16.90;;;;;;;27.39;100.00;102340.66;5201472;28;20437;-71
2023/06/23 08:34:51;;;;;;;24.48;16.67;;;;;;;27.59;100.00;102343.84;5200583;28;20355;-71
2023/06/23 08:37:22;;;;;;;29.10;19.25;;;;;;;27.35;100.00;102342.22;5200831;28;20025;-71
2023/06/23 08:39:52;;;;;;;25.58;17.83;;;;;;;26.79;100.00;102338.16;5201264;28;20048;-71
2023/06/23 08:42:25;;;;;;;28.90;18.63;;;;;;;26.84;100.00;102333.59;5201232;28;20022;-71
2023/06/23 08:44:58;;;;;;;26.83;16.70;;;;;;;27.57;100.00;102346.03;5200936;28;20036;-71
2023/06/23 08:47:30;;;;;;;21.85;16.50;;;;;;;27.58;100.00;102353.19;5200442;28;20032;-71
2023/06/23 08:50:01;;;;;;;22.50;15.70;;;;;;;27.76;100.00;102354.13;5201195;28;20483;-71
2023/06/23 08:52:32;;;;;;;26.15;16.30;;;;;;;27.93;100.00;102356.97;5201278;28;20040;-71
2023/06/23 08:55:03;;;;;;;28.55;17.38;;;;;;;27.83;100.00;102363.09;5200951;28;20021;-71
2023/06/23 08:57:34;;;;;;;19.75;13.63;;;;;;;27.64;100.00;102359.66;5201945;28;20112;-71
2023/06/23 09:00:07;;;;;;;24.67;14.88;;;;;;;28.26;100.00;102369.97;5205123;28;20111;-71
2023/06/23 09:02:38;;;;;;;22.17;14.32;;;;;;;28.00;100.00;102372.25;5205160;28;20025;-71
2023/06/23 09:05:08;;;;;;;20.20;12.88;;;;;;;27.87;100.00;102373.41;5204673;28;20036;-71
2023/06/23 09:07:39;;;;;;;22.55;14.88;;;;;;;27.83;100.00;102377.72;5204343;28;20029;-71
2023/06/23 09:10:10;;;;;;;17.90;13.93;;;;;;;27.92;100.00;102386.47;5204146;28;20104;-71
2023/06/23 09:13:16;;;;;;;23.35;14.98;;;;;;;28.08;100.00;102380.16;5204292;28;20557;-71
2023/06/23 09:15:48;;;;;;;19.85;13.20;;;;;;;28.02;100.00;102385.81;5203818;28;20383;-72
2023/06/23 09:18:18;;;;;;;24.83;15.35;;;;;;;27.95;100.00;102388.72;5204398;28;20552;-71
2023/06/23 09:20:51;;;;;;;25.50;16.80;;;;;;;28.06;100.00;102387.84;5204480;28;20029;-72
2023/06/23 09:23:23;;;;;;;21.55;15.85;;;;;;;28.08;100.00;102391.19;5203958;28;20017;-71
2023/06/23 09:25:54;;;;;;;20.58;13.10;;;;;;;28.02;100.00;102383.91;5203894;28;20083;-71
2023/06/23 09:28:27;;;;;;;29.33;16.23;;;;;;;28.07;100.00;102395.03;5203993;28;20026;-72
2023/06/23 09:31:06;;;;;;;21.40;13.23;;;;;;;28.13;100.00;102390.44;5204087;28;20160;-72
2023/06/23 09:33:46;;;;;;;19.00;12.10;;;;;;;28.30;100.00;102388.56;5203541;28;20030;-72
2023/06/23 09:36:17;;;;;;;17.83;10.52;;;;;;;28.67;100.00;102395.56;5203196;28;20040;-72
2023/06/23 09:38:49;;;;;;;18.08;10.15;;;;;;;28.53;100.00;102398.66;5203916;28;20105;-72
2023/06/23 09:41:19;;;;;;;19.45;12.93;;;;;;;-146.26;100.00;65085.03;5203048;28;20025;-72
2023/06/23 09:43:51;;;;;;;16.40;11.50;;;;;;;-146.26;100.00;65085.03;5203583;28;20017;-72
2023/06/23 09:46:22;;;;;;;27.95;15.23;;;;;;;-146.26;100.00;65085.03;5202962;28;20030;-72
2023/06/23 09:48:54;;;;;;;18.50;13.20;;;;;;;-146.26;100.00;65085.03;5203404;28;20037;-72
2023/06/23 09:51:25;;;;;;;21.20;11.57;;;;;;;-146.26;100.00;65085.03;5203281;28;20033;-72
2023/06/23 09:53:57;;;;;;;20.73;12.75;;;;;;;-146.26;100.00;65085.03;5202901;28;20026;-72
2023/06/23 09:56:27;;;;;;;20.30;11.75;;;;;;;-146.26;100.00;65085.03;5202939;28;20021;-72
2023/06/23 09:58:58;;;;;;;17.98;12.45;;;;;;;-146.26;100.00;65085.03;5203450;28;20017;-72
2023/06/23 10:01:28;;;;;;;20.52;11.40;;;;;;;-146.26;100.00;65085.03;5203221;28;20113;-72
2023/06/23 10:03:59;;;;;;;21.58;13.68;;;;;;;-146.26;100.00;65085.03;5203178;28;20022;-72
2023/06/23 10:06:32;;;;;;;18.20;11.48;;;;;;;-146.26;100.00;65085.03;5202652;28;20029;-71
2023/06/23 10:09:07;;;;;;;15.73;10.63;;;;;;;-146.26;100.00;65085.03;5202799;28;20620;-72
2023/06/23 10:11:38;;;;;;;;;;;;;;;-146.26;100.00;65085.03;5203762;28;20453;-71
2023/06/23 10:14:11;;;;;;;16.17;10.57;;;;;;;-146.26;100.00;65085.03;5202516;28;19913;-71
2023/06/23 10:16:44;;;;;;;18.95;12.15;;;;;;;-146.26;100.00;65085.03;5201953;28;20475;-72
2023/06/23 10:19:15;;;;;;;17.98;9.85;;;;;;;-146.26;100.00;65085.03;5203126;28;20112;-72
2023/06/23 10:21:46;;;;;;;16.58;10.18;;;;;;;-146.26;100.00;65085.03;5203227;28;20662;-72
2023/06/23 10:24:19;;;;;;;13.05;9.85;;;;;;;-146.26;100.00;65085.03;5190894;28;20100;-72
2023/06/23 10:26:50;;;;;;;13.52;8.63;;;;;;;-146.26;100.00;65085.03;5194505;28;20042;-71
2023/06/23 10:29:23;;;;;;;20.02;9.23;;;;;;;-146.26;100.00;65085.03;5197900;28;20724;-72
2023/06/23 10:31:57;;;;;;;17.20;11.60;;;;;;;-146.26;100.00;65085.03;5205633;28;20033;-71
2023/06/23 10:34:28;;;;;;;16.67;9.70;;;;;;;-146.26;100.00;65085.03;5208258;28;20049;-71
2023/06/23 10:37:03;;;;;;;15.60;9.30;;;;;;;-146.26;100.00;65085.03;5208806;28;20041;-72
2023/06/23 10:39:35;;;;;;;18.75;10.38;;;;;;;-146.26;100.00;65085.03;5205731;28;20471;-71
2023/06/23 10:42:11;;;;;;;17.63;9.00;;;;;;;-146.26;100.00;65085.03;5209719;28;20020;-71
2023/06/23 10:44:42;;;;;;;17.15;10.05;;;;;;;-146.26;100.00;65085.03;5208677;28;20104;-71
2023/06/23 10:47:12;;;;;;;17.42;10.93;;;;;;;-146.26;100.00;65085.03;5206455;28;20018;-72
2023/06/23 10:49:45;;;;;;;17.00;10.23;;;;;;;-146.26;100.00;65085.03;5204932;28;20087;-71
2023/06/23 10:52:16;;;;;;;17.67;10.32;;;;;;;-146.26;100.00;65085.03;5208493;28;20033;-72
2023/06/23 10:54:46;;;;;;;11.88;8.00;;;;;;;-146.26;100.00;65085.03;5210007;28;20120;-71
2023/06/23 10:57:16;;;;;;;16.67;9.68;;;;;;;-146.26;100.00;65085.03;5210955;28;20017;-72
2023/06/23 11:00:00;;;;;;;15.73;10.23;;;;;;;-146.26;100.00;65085.03;5207112;28;20037;-72
2023/06/23 11:02:51;;;;;;;12.77;7.93;;;;;;;-146.26;100.00;65085.03;5201843;28;20722;-72
2023/06/23 11:05:21;;;;;;;11.07;7.38;;;;;;;-146.26;100.00;65085.03;5192291;28;20441;-72
2023/06/23 11:08:12;;;;;;;17.50;9.32;;;;;;;-146.26;100.00;65085.03;5201817;28;20032;-71
2023/06/23 11:11:01;;;;;;;11.70;7.03;;;;;;;-146.26;100.00;65085.03;5209945;28;20033;-71
2023/06/23 11:13:51;;;;;;;12.45;8.05;;;;;;;-146.26;100.00;65085.03;5201543;28;20025;-71
2023/06/23 11:16:40;;;;;;;12.43;8.50;;;;;;;-146.26;100.00;65085.03;5193242;28;20383;-71
2023/06/23 11:19:26;;;;;;;15.38;9.43;;;;;;;-146.26;100.00;65085.03;5211342;28;20471;-71
2023/06/23 11:22:08;;;;;;;15.23;9.43;;;;;;;-146.26;100.00;65085.03;5206615;28;20082;-72
2023/06/23 11:24:52;;;;;;;14.57;9.57;;;;;;;-146.26;100.00;65085.03;5204791;28;20028;-72
2023/06/23 11:27:22;;;;;;;11.23;7.70;;;;;;;-146.26;100.00;65085.03;5215662;28;20407;-72